createdAt,value
2017-10-05T00:00:00.861Z,1005.72
2017-10-05T00:01:09.697Z,1005.77
2017-10-05T00:02:18.851Z,1005.72
2017-10-05T00:03:27.685Z,1005.77
2017-10-05T00:04:36.520Z,1005.76
2017-10-05T00:05:45.354Z,1005.75
2017-10-05T00:06:54.190Z,1005.85
2017-10-05T00:08:03.023Z,1005.74
2017-10-05T00:09:11.858Z,1005.71
2017-10-05T00:10:21.022Z,1005.63
2017-10-05T00:11:29.851Z,1005.74
2017-10-05T00:12:38.686Z,1005.68
2017-10-05T00:13:47.519Z,1005.8
2017-10-05T00:14:56.358Z,1005.71
2017-10-05T00:16:05.193Z,1005.72
2017-10-05T00:17:14.029Z,1005.64
2017-10-05T00:18:22.860Z,1005.58
2017-10-05T00:19:31.691Z,1005.7
2017-10-05T00:20:40.531Z,1005.71
2017-10-05T00:21:49.364Z,1005.84
2017-10-05T00:22:58.201Z,1005.59
2017-10-05T00:24:07.041Z,1005.64
2017-10-05T00:25:16.200Z,1005.6
2017-10-05T00:26:25.036Z,1005.69
2017-10-05T00:27:33.872Z,1005.68
2017-10-05T00:28:42.704Z,1005.49
2017-10-05T00:29:51.539Z,1005.51
2017-10-05T00:31:00.377Z,1005.52
2017-10-05T00:32:09.209Z,1005.54
2017-10-05T00:33:18.039Z,1005.44
2017-10-05T00:34:26.877Z,1005.37
2017-10-05T00:35:35.713Z,1005.4
2017-10-05T00:36:44.869Z,1005.4
2017-10-05T00:37:53.703Z,1005.36
2017-10-05T00:39:02.535Z,1005.36
2017-10-05T00:40:11.370Z,1005.39
2017-10-05T00:41:20.205Z,1005.4
2017-10-05T00:42:29.039Z,1005.42
2017-10-05T00:43:37.875Z,1005.43
2017-10-05T00:44:46.711Z,1005.38
2017-10-05T00:45:55.553Z,1005.43
2017-10-05T00:47:04.375Z,1005.51
2017-10-05T00:48:13.215Z,1005.51
2017-10-05T00:49:22.373Z,1005.47
2017-10-05T00:50:31.204Z,1005.42
2017-10-05T00:51:40.038Z,1005.42
2017-10-05T00:52:48.874Z,1005.43
2017-10-05T00:53:57.709Z,1005.38
2017-10-05T00:55:06.544Z,1005.44
2017-10-05T00:56:15.378Z,1005.45
2017-10-05T00:57:24.212Z,1005.5
2017-10-05T00:58:33.048Z,1005.48
2017-10-05T00:59:42.227Z,1005.46
2017-10-05T01:00:51.065Z,1005.43
2017-10-05T01:01:59.899Z,1005.39
2017-10-05T01:03:08.729Z,1005.32
2017-10-05T01:04:17.558Z,1005.28
2017-10-05T01:05:26.394Z,1005.19
2017-10-05T01:06:35.227Z,1005.12
2017-10-05T01:07:44.064Z,1005.2
2017-10-05T01:08:52.895Z,1005.09
2017-10-05T01:10:01.729Z,1005.09
2017-10-05T01:11:10.557Z,1005.03
2017-10-05T01:12:19.392Z,1004.97
2017-10-05T01:13:28.228Z,1004.92
2017-10-05T01:14:37.062Z,1005.05
2017-10-05T01:15:45.898Z,1004.92
2017-10-05T01:16:54.733Z,1004.94
2017-10-05T01:18:03.886Z,1004.85
2017-10-05T01:19:12.719Z,1004.89
2017-10-05T01:20:21.552Z,1004.88
2017-10-05T01:21:30.402Z,1004.84
2017-10-05T01:22:39.214Z,1004.85
2017-10-05T01:23:48.049Z,1004.78
2017-10-05T01:24:56.885Z,1004.7
2017-10-05T01:26:05.719Z,1004.69
2017-10-05T01:27:14.554Z,1004.57
2017-10-05T01:28:23.387Z,1004.61
2017-10-05T01:29:32.217Z,1004.57
2017-10-05T01:30:41.053Z,1004.46
2017-10-05T01:31:49.889Z,1004.45
2017-10-05T01:32:58.722Z,1004.43
2017-10-05T01:34:07.560Z,1004.4
2017-10-05T01:35:16.394Z,1004.39
2017-10-05T01:36:25.230Z,1004.4
2017-10-05T01:37:34.066Z,1004.35
2017-10-05T01:38:42.898Z,1004.36
2017-10-05T01:39:51.729Z,1004.36
2017-10-05T01:41:00.562Z,1004.32
2017-10-05T01:42:09.397Z,1004.31
2017-10-05T01:43:18.233Z,1004.28
2017-10-05T01:44:27.069Z,1004.22
2017-10-05T01:45:35.904Z,1004.23
2017-10-05T01:46:44.734Z,1004.22
2017-10-05T01:47:53.573Z,1004.21
2017-10-05T01:49:02.411Z,1004.27
2017-10-05T01:50:11.246Z,1004.16
2017-10-05T01:51:20.081Z,1004.09
2017-10-05T01:52:28.908Z,1004.08
2017-10-05T01:53:37.744Z,1004.2
2017-10-05T01:54:46.582Z,1004.25
2017-10-05T01:55:55.421Z,1004.3
2017-10-05T01:57:04.250Z,1004.24
2017-10-05T01:58:13.085Z,1004.29
2017-10-05T01:59:21.918Z,1004.26
2017-10-05T02:00:30.756Z,1004.2
2017-10-05T02:01:39.584Z,1004.16
2017-10-05T02:02:48.424Z,1004.16
2017-10-05T02:03:57.582Z,1004.02
2017-10-05T02:05:06.413Z,1004.01
2017-10-05T02:06:15.248Z,1003.97
2017-10-05T02:07:24.084Z,1004.16
2017-10-05T02:08:32.916Z,1004.18
2017-10-05T02:09:42.070Z,1004.1
2017-10-05T02:10:50.905Z,1004.05
2017-10-05T02:11:59.742Z,1004
2017-10-05T02:13:08.577Z,1003.95
2017-10-05T02:14:17.741Z,1003.92
2017-10-05T02:15:26.573Z,1003.94
2017-10-05T02:16:35.404Z,1004.02
2017-10-05T02:17:44.240Z,1004.05
2017-10-05T02:18:53.072Z,1003.97
2017-10-05T02:20:01.910Z,1003.82
2017-10-05T02:21:10.744Z,1003.91
2017-10-05T02:22:19.578Z,1003.79
2017-10-05T02:23:28.407Z,1003.66
2017-10-05T02:24:37.244Z,1003.71
2017-10-05T02:25:46.082Z,1003.65
2017-10-05T02:26:55.235Z,1003.76
2017-10-05T02:28:04.070Z,1003.78
2017-10-05T02:29:12.899Z,1003.81
2017-10-05T02:30:21.737Z,1003.88
2017-10-05T02:31:30.569Z,1003.78
2017-10-05T02:32:39.405Z,1003.7
2017-10-05T02:33:48.244Z,1003.65
2017-10-05T02:34:57.076Z,1003.68
2017-10-05T02:36:05.913Z,1003.77
2017-10-05T02:37:14.743Z,1003.75
2017-10-05T02:38:23.581Z,1003.74
2017-10-05T02:39:32.742Z,1003.78
2017-10-05T02:40:41.580Z,1003.67
2017-10-05T02:41:50.415Z,1003.69
2017-10-05T02:42:59.250Z,1003.68
2017-10-05T02:44:08.406Z,1003.72
2017-10-05T02:45:17.244Z,1003.73
2017-10-05T02:46:26.080Z,1003.63
2017-10-05T02:47:34.913Z,1003.58
2017-10-05T02:48:44.077Z,1003.64
2017-10-05T02:49:53.239Z,1003.65
2017-10-05T02:51:02.070Z,1003.61
2017-10-05T02:52:10.906Z,1003.59
2017-10-05T02:53:19.746Z,1003.56
2017-10-05T02:54:28.908Z,1003.55
2017-10-05T02:55:37.743Z,1003.5
2017-10-05T02:56:46.576Z,1003.42
2017-10-05T02:57:55.407Z,1003.48
2017-10-05T02:59:04.242Z,1003.37
2017-10-05T03:00:13.080Z,1003.42
2017-10-05T03:01:21.916Z,1003.4
2017-10-05T03:02:30.754Z,1003.35
2017-10-05T03:03:39.581Z,1003.35
2017-10-05T03:04:48.415Z,1003.34
2017-10-05T03:05:57.249Z,1003.28
2017-10-05T03:07:06.082Z,1003.25
2017-10-05T03:08:14.914Z,1003.24
2017-10-05T03:09:23.748Z,1003.15
2017-10-05T03:10:32.585Z,1003.21
2017-10-05T03:11:41.423Z,1003.2
2017-10-05T03:12:50.257Z,1003.16
2017-10-05T03:13:59.092Z,1003.18
2017-10-05T03:15:07.926Z,1003.15
2017-10-05T03:16:16.756Z,1003.18
2017-10-05T03:17:25.591Z,1003.1
2017-10-05T03:18:34.425Z,1003.08
2017-10-05T03:19:43.275Z,1003.04
2017-10-05T03:20:52.093Z,1003.1
2017-10-05T03:22:00.927Z,1003.05
2017-10-05T03:23:10.079Z,1002.96
2017-10-05T03:24:18.910Z,1002.99
2017-10-05T03:25:27.746Z,1002.89
2017-10-05T03:26:36.584Z,1002.89
2017-10-05T03:27:45.425Z,1002.84
2017-10-05T03:28:54.255Z,1002.88
2017-10-05T03:30:03.090Z,1002.89
2017-10-05T03:31:11.934Z,1002.86
2017-10-05T03:32:20.754Z,1002.79
2017-10-05T03:33:29.591Z,1002.73
2017-10-05T03:34:38.424Z,1002.71
2017-10-05T03:35:47.257Z,1002.68
2017-10-05T03:36:56.088Z,1002.65
2017-10-05T03:38:04.927Z,1002.63
2017-10-05T03:39:14.077Z,1002.63
2017-10-05T03:40:22.913Z,1002.62
2017-10-05T03:41:31.747Z,1002.56
2017-10-05T03:42:40.901Z,1002.6
2017-10-05T03:43:49.731Z,1002.57
2017-10-05T03:44:58.564Z,1002.59
2017-10-05T03:46:07.394Z,1002.55
2017-10-05T03:47:16.551Z,1002.54
2017-10-05T03:48:25.387Z,1002.5
2017-10-05T03:49:34.218Z,1002.5
2017-10-05T03:50:43.051Z,1002.42
2017-10-05T03:51:51.881Z,1002.38
2017-10-05T03:53:00.709Z,1002.31
2017-10-05T03:54:09.549Z,1002.24
2017-10-05T03:55:18.700Z,1002.22
2017-10-05T03:56:27.592Z,1002.18
2017-10-05T03:57:36.424Z,1002.16
2017-10-05T03:58:45.259Z,1002.11
2017-10-05T03:59:54.091Z,1002.18
2017-10-05T04:01:02.921Z,1002.16
2017-10-05T04:02:11.756Z,1002.11
2017-10-05T04:03:20.587Z,1002.1
2017-10-05T04:04:29.421Z,1002.04
2017-10-05T04:05:38.253Z,1002.08
2017-10-05T04:06:47.087Z,1002.05
2017-10-05T04:07:55.912Z,1001.96
2017-10-05T04:09:04.750Z,1001.99
2017-10-05T04:10:13.587Z,1002.01
2017-10-05T04:11:22.742Z,1002.03
2017-10-05T04:12:31.576Z,1002.01
2017-10-05T04:13:40.407Z,1001.93
2017-10-05T04:14:49.248Z,1001.92
2017-10-05T04:15:58.079Z,1001.95
2017-10-05T04:17:06.912Z,1001.96
2017-10-05T04:18:15.738Z,1001.9
2017-10-05T04:19:24.570Z,1001.92
2017-10-05T04:20:33.407Z,1001.89
2017-10-05T04:21:42.243Z,1001.89
2017-10-05T04:22:51.076Z,1001.89
2017-10-05T04:23:59.909Z,1001.88
2017-10-05T04:25:08.741Z,1001.88
2017-10-05T04:26:17.898Z,1001.87
2017-10-05T04:27:26.733Z,1001.86
2017-10-05T04:28:35.564Z,1001.8
2017-10-05T04:29:44.398Z,1001.79
2017-10-05T04:30:53.234Z,1001.79
2017-10-05T04:32:02.063Z,1001.76
2017-10-05T04:33:10.902Z,1001.71
2017-10-05T04:34:19.761Z,1001.75
2017-10-05T04:35:28.565Z,1001.74
2017-10-05T04:36:37.394Z,1001.7
2017-10-05T04:37:46.228Z,1001.67
2017-10-05T04:38:55.061Z,1001.66
2017-10-05T04:40:03.896Z,1001.59
2017-10-05T04:41:12.731Z,1001.55
2017-10-05T04:42:21.559Z,1001.48
2017-10-05T04:43:30.392Z,1001.46
2017-10-05T04:44:39.235Z,1001.48
2017-10-05T04:45:48.063Z,1001.44
2017-10-05T04:46:56.897Z,1001.41
2017-10-05T04:48:05.727Z,1001.45
2017-10-05T04:49:14.562Z,1001.37
2017-10-05T04:50:23.393Z,1001.3
2017-10-05T04:51:32.563Z,1001.28
2017-10-05T04:52:41.394Z,1001.27
2017-10-05T04:53:50.226Z,1001.26
2017-10-05T04:54:59.057Z,1001.25
2017-10-05T04:56:08.238Z,1001.13
2017-10-05T04:57:17.072Z,1001.2
2017-10-05T04:58:26.222Z,1001.14
2017-10-05T04:59:35.059Z,1001.11
2017-10-05T05:00:43.886Z,1001.08
2017-10-05T05:01:52.724Z,1001.05
2017-10-05T05:03:01.551Z,1000.97
2017-10-05T05:04:10.384Z,1000.98
2017-10-05T05:05:19.217Z,1000.94
2017-10-05T05:06:28.052Z,1000.93
2017-10-05T05:07:36.881Z,1000.96
2017-10-05T05:08:45.720Z,1000.88
2017-10-05T05:09:54.552Z,1000.9
2017-10-05T05:11:03.379Z,1000.8
2017-10-05T05:12:12.216Z,1000.76
2017-10-05T05:13:21.048Z,1000.83
2017-10-05T05:14:29.875Z,1000.8
2017-10-05T05:15:38.710Z,1000.73
2017-10-05T05:16:47.546Z,1000.8
2017-10-05T05:17:56.378Z,1000.76
2017-10-05T05:19:05.211Z,1000.65
2017-10-05T05:20:14.046Z,1000.64
2017-10-05T05:21:23.198Z,1000.67
2017-10-05T05:22:32.031Z,1000.6
2017-10-05T05:23:40.861Z,1000.74
2017-10-05T05:24:49.692Z,1000.64
2017-10-05T05:25:58.845Z,1000.62
2017-10-05T05:27:07.678Z,1000.57
2017-10-05T05:28:16.513Z,1000.61
2017-10-05T05:29:25.345Z,1000.57
2017-10-05T05:30:34.180Z,1000.68
2017-10-05T05:31:43.008Z,1000.71
2017-10-05T05:32:51.842Z,1000.65
2017-10-05T05:34:00.678Z,1000.68
2017-10-05T05:35:09.508Z,1000.63
2017-10-05T05:36:18.662Z,1000.57
2017-10-05T05:37:27.498Z,1000.49
2017-10-05T05:38:36.328Z,1000.48
2017-10-05T05:39:45.159Z,1000.52
2017-10-05T05:40:53.994Z,1000.47
2017-10-05T05:42:02.826Z,1000.4
2017-10-05T05:43:11.975Z,1000.38
2017-10-05T05:44:20.812Z,1000.39
2017-10-05T05:45:29.640Z,1000.31
2017-10-05T05:46:38.480Z,1000.28
2017-10-05T05:47:47.309Z,1000.31
2017-10-05T05:48:56.141Z,1000.28
2017-10-05T05:50:04.971Z,1000.19
2017-10-05T05:51:13.802Z,1000.17
2017-10-05T05:52:22.630Z,1000.12
2017-10-05T05:53:31.464Z,1000.04
2017-10-05T05:54:40.300Z,1000.03
2017-10-05T05:55:49.126Z,1000.05
2017-10-05T05:56:57.958Z,1000.1
2017-10-05T05:58:06.789Z,1000.1
2017-10-05T05:59:15.625Z,1000.01
2017-10-05T06:00:24.459Z,1000.07
2017-10-05T06:01:33.612Z,999.98
2017-10-05T06:02:42.444Z,1000.02
2017-10-05T06:03:51.273Z,999.96
2017-10-05T06:05:00.106Z,999.9
2017-10-05T06:06:08.936Z,999.91
2017-10-05T06:07:17.770Z,999.87
2017-10-05T06:08:26.600Z,999.84
2017-10-05T06:09:35.430Z,999.81
2017-10-05T06:10:44.265Z,999.76
2017-10-05T06:11:53.093Z,999.76
2017-10-05T06:13:01.924Z,999.77
2017-10-05T06:14:10.758Z,999.71
2017-10-05T06:15:19.592Z,999.6
2017-10-05T06:16:28.424Z,999.63
2017-10-05T06:17:37.256Z,999.55
2017-10-05T06:18:46.089Z,999.57
2017-10-05T06:19:54.917Z,999.5
2017-10-05T06:21:03.752Z,999.49
2017-10-05T06:22:12.579Z,999.5
2017-10-05T06:23:21.743Z,999.41
2017-10-05T06:24:30.579Z,999.42
2017-10-05T06:25:39.729Z,999.36
2017-10-05T06:26:48.560Z,999.35
2017-10-05T06:27:57.394Z,999.3
2017-10-05T06:29:06.227Z,999.3
2017-10-05T06:30:15.063Z,999.33
2017-10-05T06:31:24.223Z,999.29
2017-10-05T06:32:33.055Z,999.27
2017-10-05T06:33:41.887Z,999.28
2017-10-05T06:34:50.722Z,999.31
2017-10-05T06:35:59.550Z,999.33
2017-10-05T06:37:08.386Z,999.31
2017-10-05T06:38:17.216Z,999.29
2017-10-05T06:39:26.051Z,999.28
2017-10-05T06:40:34.880Z,999.28
2017-10-05T06:41:43.710Z,999.32
2017-10-05T06:42:52.543Z,999.36
2017-10-05T06:44:01.369Z,999.32
2017-10-05T06:45:10.204Z,999.34
2017-10-05T06:46:19.035Z,999.28
2017-10-05T06:47:27.865Z,999.27
2017-10-05T06:48:36.695Z,999.22
2017-10-05T06:49:45.525Z,999.25
2017-10-05T06:50:54.356Z,999.29
2017-10-05T06:52:03.189Z,999.22
2017-10-05T06:53:12.023Z,999.16
2017-10-05T06:54:20.856Z,999.17
2017-10-05T06:55:29.686Z,999.11
2017-10-05T06:56:38.517Z,999.09
2017-10-05T06:57:47.346Z,999.07
2017-10-05T06:58:56.181Z,999.07
2017-10-05T07:00:05.012Z,999.06
2017-10-05T07:01:13.842Z,999.09
2017-10-05T07:02:22.676Z,998.97
2017-10-05T07:03:31.506Z,998.96
2017-10-05T07:04:40.333Z,998.97
2017-10-05T07:05:49.526Z,998.99
2017-10-05T07:06:58.355Z,998.91
2017-10-05T07:08:07.188Z,998.89
2017-10-05T07:09:16.023Z,998.8
2017-10-05T07:10:25.184Z,998.76
2017-10-05T07:11:34.016Z,998.76
2017-10-05T07:12:42.847Z,998.72
2017-10-05T07:13:51.678Z,998.71
2017-10-05T07:15:00.508Z,998.71
2017-10-05T07:16:09.341Z,998.69
2017-10-05T07:17:18.168Z,998.66
2017-10-05T07:18:26.997Z,998.61
2017-10-05T07:19:36.156Z,998.57
2017-10-05T07:20:44.988Z,998.59
2017-10-05T07:21:53.818Z,998.55
2017-10-05T07:23:02.647Z,998.51
2017-10-05T07:24:11.486Z,998.56
2017-10-05T07:25:20.312Z,998.53
2017-10-05T07:26:29.143Z,998.46
2017-10-05T07:27:37.980Z,998.51
2017-10-05T07:28:46.812Z,998.49
2017-10-05T07:29:55.969Z,998.44
2017-10-05T07:31:04.801Z,998.37
2017-10-05T07:32:13.632Z,998.36
2017-10-05T07:33:22.458Z,998.37
2017-10-05T07:34:31.295Z,998.33
2017-10-05T07:35:40.449Z,998.3
2017-10-05T07:36:49.285Z,998.28
2017-10-05T07:37:58.116Z,998.17
2017-10-05T07:39:06.948Z,998.16
2017-10-05T07:40:15.780Z,998.09
2017-10-05T07:41:24.615Z,998.09
2017-10-05T07:42:33.442Z,998.12
2017-10-05T07:43:42.276Z,998.05
2017-10-05T07:44:51.108Z,998.03
2017-10-05T07:45:59.934Z,998.03
2017-10-05T07:47:08.776Z,998.01
2017-10-05T07:48:17.613Z,997.93
2017-10-05T07:49:26.442Z,997.88
2017-10-05T07:50:35.275Z,997.91
2017-10-05T07:51:44.104Z,997.88
2017-10-05T07:52:52.935Z,997.85
2017-10-05T07:54:01.767Z,997.85
2017-10-05T07:55:10.598Z,997.79
2017-10-05T07:56:19.432Z,997.71
2017-10-05T07:57:28.266Z,997.6
2017-10-05T07:58:37.093Z,997.57
2017-10-05T07:59:45.925Z,997.58
2017-10-05T08:00:55.087Z,997.6
2017-10-05T08:02:03.916Z,997.57
2017-10-05T08:03:12.746Z,997.55
2017-10-05T08:04:21.584Z,997.46
2017-10-05T08:05:30.415Z,997.43
2017-10-05T08:06:39.245Z,997.33
2017-10-05T08:07:48.078Z,997.31
2017-10-05T08:08:56.913Z,997.26
2017-10-05T08:10:05.738Z,997.11
2017-10-05T08:11:14.572Z,997.08
2017-10-05T08:12:23.400Z,997.11
2017-10-05T08:13:32.235Z,997.19
2017-10-05T08:14:41.071Z,997.16
2017-10-05T08:15:49.899Z,997.15
2017-10-05T08:16:58.727Z,997.1
2017-10-05T08:18:07.559Z,997.08
2017-10-05T08:19:16.389Z,997.12
2017-10-05T08:20:25.223Z,997.17
2017-10-05T08:21:34.058Z,997.15
2017-10-05T08:22:42.883Z,997.19
2017-10-05T08:23:51.712Z,997.18
2017-10-05T08:25:00.546Z,997.17
2017-10-05T08:26:09.373Z,997.13
2017-10-05T08:27:18.206Z,997.07
2017-10-05T08:28:27.036Z,997.11
2017-10-05T08:29:35.874Z,997.01
2017-10-05T08:30:44.705Z,996.98
2017-10-05T08:31:53.538Z,996.91
2017-10-05T08:33:02.369Z,996.87
2017-10-05T08:34:11.203Z,996.83
2017-10-05T08:35:20.032Z,996.83
2017-10-05T08:36:28.864Z,996.86
2017-10-05T08:37:37.696Z,996.78
2017-10-05T08:38:46.527Z,996.62
2017-10-05T08:39:55.355Z,996.61
2017-10-05T08:41:04.185Z,996.66
2017-10-05T08:42:13.025Z,996.59
2017-10-05T08:43:21.857Z,996.55
2017-10-05T08:44:30.685Z,996.48
2017-10-05T08:45:39.515Z,996.47
2017-10-05T08:46:48.349Z,996.51
2017-10-05T08:47:57.178Z,996.52
2017-10-05T08:49:06.006Z,996.54
2017-10-05T08:50:14.842Z,996.43
2017-10-05T08:51:23.988Z,996.44
2017-10-05T08:52:32.826Z,996.42
2017-10-05T08:53:41.657Z,996.34
2017-10-05T08:54:50.485Z,996.28
2017-10-05T08:55:59.319Z,996.24
2017-10-05T08:57:08.148Z,996.17
2017-10-05T08:58:16.982Z,996.09
2017-10-05T08:59:25.812Z,996.04
2017-10-05T09:00:34.648Z,996.07
2017-10-05T09:01:43.476Z,996.02
2017-10-05T09:02:52.306Z,995.84
2017-10-05T09:04:01.137Z,995.74
2017-10-05T09:05:10.289Z,995.7
2017-10-05T09:06:19.122Z,995.66
2017-10-05T09:07:27.952Z,995.71
2017-10-05T09:08:36.785Z,995.72
2017-10-05T09:09:45.616Z,995.68
2017-10-05T09:10:54.449Z,995.65
2017-10-05T09:12:03.277Z,995.59
2017-10-05T09:13:12.106Z,995.59
2017-10-05T09:14:21.266Z,995.64
2017-10-05T09:15:30.097Z,995.56
2017-10-05T09:16:38.931Z,995.49
2017-10-05T09:17:47.765Z,995.55
2017-10-05T09:18:56.596Z,995.41
2017-10-05T09:20:05.430Z,995.31
2017-10-05T09:21:14.266Z,995.24
2017-10-05T09:22:23.095Z,995.21
2017-10-05T09:23:31.920Z,995.09
2017-10-05T09:24:40.757Z,995.04
2017-10-05T09:25:49.586Z,994.94
2017-10-05T09:26:58.421Z,994.91
2017-10-05T09:28:07.249Z,994.96
2017-10-05T09:29:16.082Z,994.91
2017-10-05T09:30:24.909Z,994.86
2017-10-05T09:31:33.742Z,994.75
2017-10-05T09:32:42.893Z,994.7
2017-10-05T09:33:51.726Z,994.62
2017-10-05T09:35:00.560Z,994.62
2017-10-05T09:36:09.389Z,994.71
2017-10-05T09:37:18.224Z,994.6
2017-10-05T09:38:27.066Z,994.49
2017-10-05T09:39:35.893Z,994.46
2017-10-05T09:40:44.726Z,994.36
2017-10-05T09:41:53.562Z,994.33
2017-10-05T09:43:02.391Z,994.19
2017-10-05T09:44:11.219Z,994.29
2017-10-05T09:45:20.055Z,994.2
2017-10-05T09:46:28.893Z,994.16
2017-10-05T09:47:37.721Z,994.12
2017-10-05T09:48:46.557Z,994.01
2017-10-05T09:49:55.389Z,993.96
2017-10-05T09:51:04.217Z,993.95
2017-10-05T09:52:13.051Z,993.95
2017-10-05T09:53:21.886Z,993.95
2017-10-05T09:54:30.717Z,994.03
2017-10-05T09:55:39.549Z,994.04
2017-10-05T09:56:48.376Z,994.03
2017-10-05T09:57:57.209Z,993.96
2017-10-05T09:59:06.050Z,993.94
2017-10-05T10:00:14.876Z,993.85
2017-10-05T10:01:23.708Z,993.78
2017-10-05T10:02:32.543Z,993.72
2017-10-05T10:03:41.368Z,993.6
2017-10-05T10:04:50.197Z,993.67
2017-10-05T10:05:59.035Z,993.63
2017-10-05T10:07:07.868Z,993.61
2017-10-05T10:08:16.702Z,993.61
2017-10-05T10:09:26.176Z,993.55
2017-10-05T10:10:35.011Z,993.57
2017-10-05T10:11:43.842Z,993.56
2017-10-05T10:12:52.672Z,993.49
2017-10-05T10:14:01.503Z,993.45
2017-10-05T10:15:10.333Z,993.31
2017-10-05T10:16:19.167Z,993.31
2017-10-05T10:17:28.327Z,993.24
2017-10-05T10:18:37.161Z,993.22
2017-10-05T10:19:45.994Z,993.21
2017-10-05T10:20:54.827Z,993.22
2017-10-05T10:22:03.979Z,993.09
2017-10-05T10:23:12.812Z,993.03
2017-10-05T10:24:21.645Z,992.94
2017-10-05T10:25:30.477Z,992.86
2017-10-05T10:26:39.309Z,992.82
2017-10-05T10:27:48.147Z,992.72
2017-10-05T10:28:56.977Z,992.72
2017-10-05T10:30:05.807Z,992.72
2017-10-05T10:31:14.635Z,992.74
2017-10-05T10:32:23.468Z,992.75
2017-10-05T10:33:32.295Z,992.69
2017-10-05T10:34:41.454Z,992.63
2017-10-05T10:35:50.286Z,992.65
2017-10-05T10:36:59.116Z,992.58
2017-10-05T10:38:08.287Z,992.46
2017-10-05T10:39:17.104Z,992.29
2017-10-05T10:40:25.941Z,992.18
2017-10-05T10:41:34.772Z,992.14
2017-10-05T10:42:43.599Z,992.07
2017-10-05T10:43:52.430Z,992.1
2017-10-05T10:45:01.266Z,991.96
2017-10-05T10:46:10.093Z,991.93
2017-10-05T10:47:18.927Z,991.96
2017-10-05T10:48:27.761Z,991.85
2017-10-05T10:49:36.595Z,991.83
2017-10-05T10:50:45.422Z,991.84
2017-10-05T10:51:54.255Z,991.79
2017-10-05T10:53:03.085Z,991.73
2017-10-05T10:54:11.918Z,991.73
2017-10-05T10:55:21.085Z,991.62
2017-10-05T10:56:29.913Z,991.59
2017-10-05T10:57:39.075Z,991.52
2017-10-05T10:58:47.904Z,991.54
2017-10-05T10:59:56.738Z,991.52
2017-10-05T11:01:05.569Z,991.43
2017-10-05T11:02:14.404Z,991.46
2017-10-05T11:03:23.231Z,991.32
2017-10-05T11:04:32.061Z,991.26
2017-10-05T11:05:40.900Z,991.34
2017-10-05T11:06:49.734Z,991.23
2017-10-05T11:07:58.565Z,991.17
2017-10-05T11:09:07.395Z,991.11
2017-10-05T11:10:16.221Z,991.02
2017-10-05T11:11:25.053Z,991.07
2017-10-05T11:12:34.211Z,991.05
2017-10-05T11:13:43.043Z,990.9
2017-10-05T11:14:51.868Z,990.96
2017-10-05T11:16:00.705Z,990.85
2017-10-05T11:17:09.536Z,990.89
2017-10-05T11:18:18.370Z,990.8
2017-10-05T11:19:27.204Z,990.85
2017-10-05T11:20:36.034Z,990.86
2017-10-05T11:21:44.859Z,990.61
2017-10-05T11:22:53.694Z,990.68
2017-10-05T11:24:02.524Z,990.62
2017-10-05T11:25:11.358Z,990.56
2017-10-05T11:26:20.187Z,990.46
2017-10-05T11:27:29.021Z,990.45
2017-10-05T11:28:37.850Z,990.39
2017-10-05T11:29:46.687Z,990.47
2017-10-05T11:30:55.516Z,990.4
2017-10-05T11:32:04.346Z,990.3
2017-10-05T11:33:13.177Z,990.23
2017-10-05T11:34:22.010Z,990.15
2017-10-05T11:35:30.843Z,990.11
2017-10-05T11:36:39.674Z,990.04
2017-10-05T11:37:48.508Z,990.03
2017-10-05T11:38:57.332Z,989.96
2017-10-05T11:40:06.162Z,989.92
2017-10-05T11:41:14.995Z,989.86
2017-10-05T11:42:24.154Z,989.82
2017-10-05T11:43:32.984Z,989.87
2017-10-05T11:44:41.815Z,989.84
2017-10-05T11:45:50.643Z,989.75
2017-10-05T11:46:59.475Z,989.71
2017-10-05T11:48:08.650Z,989.66
2017-10-05T11:49:17.485Z,989.69
2017-10-05T11:50:26.316Z,989.59
2017-10-05T11:51:35.147Z,989.56
2017-10-05T11:52:43.980Z,989.42
2017-10-05T11:53:52.810Z,989.43
2017-10-05T11:55:01.642Z,989.39
2017-10-05T11:56:10.473Z,989.29
2017-10-05T11:57:19.310Z,989.29
2017-10-05T11:58:28.141Z,989.19
2017-10-05T11:59:36.988Z,989.08
2017-10-05T12:00:45.815Z,989.16
2017-10-05T12:01:54.641Z,989.17
2017-10-05T12:03:03.475Z,989
2017-10-05T12:04:12.307Z,989
2017-10-05T12:05:21.138Z,989.1
2017-10-05T12:06:29.973Z,988.86
2017-10-05T12:07:38.806Z,988.96
2017-10-05T12:08:47.643Z,988.9
2017-10-05T12:09:56.474Z,988.85
2017-10-05T12:11:05.314Z,988.85
2017-10-05T12:12:14.140Z,988.75
2017-10-05T12:13:22.973Z,988.7
2017-10-05T12:14:31.800Z,988.73
2017-10-05T12:15:40.637Z,988.6
2017-10-05T12:16:49.471Z,988.53
2017-10-05T12:17:58.303Z,988.58
2017-10-05T12:19:07.134Z,988.43
2017-10-05T12:20:15.966Z,988.37
2017-10-05T12:21:24.796Z,988.42
2017-10-05T12:22:33.627Z,988.42
2017-10-05T12:23:42.455Z,988.33
2017-10-05T12:24:51.292Z,988.32
2017-10-05T12:26:00.117Z,988.21
2017-10-05T12:27:08.954Z,988.25
2017-10-05T12:28:17.786Z,988.2
2017-10-05T12:29:26.619Z,988.11
2017-10-05T12:30:35.462Z,988.05
2017-10-05T12:31:44.281Z,988.2
2017-10-05T12:32:53.114Z,988.11
2017-10-05T12:34:01.946Z,988.03
2017-10-05T12:35:10.782Z,988
2017-10-05T12:36:19.613Z,987.81
2017-10-05T12:37:28.446Z,987.99
2017-10-05T12:38:37.280Z,987.81
2017-10-05T12:39:46.113Z,987.77
2017-10-05T12:40:54.947Z,987.68
2017-10-05T12:42:03.776Z,987.63
2017-10-05T12:43:12.608Z,987.52
2017-10-05T12:44:21.441Z,987.47
2017-10-05T12:45:30.278Z,987.34
2017-10-05T12:46:39.112Z,987.22
2017-10-05T12:47:47.942Z,987.14
2017-10-05T12:48:57.094Z,987.04
2017-10-05T12:50:05.928Z,987
2017-10-05T12:51:14.760Z,986.99
2017-10-05T12:52:23.598Z,986.9
2017-10-05T12:53:32.421Z,986.83
2017-10-05T12:54:41.255Z,986.82
2017-10-05T12:55:50.085Z,986.72
2017-10-05T12:56:58.916Z,986.67
2017-10-05T12:58:07.748Z,986.68
2017-10-05T12:59:16.586Z,986.51
2017-10-05T13:00:25.418Z,986.51
2017-10-05T13:01:34.570Z,986.37
2017-10-05T13:02:43.399Z,986.43
2017-10-05T13:03:52.240Z,986.31
2017-10-05T13:05:01.387Z,986.33
2017-10-05T13:06:10.228Z,986.28
2017-10-05T13:07:19.052Z,986.07
2017-10-05T13:08:27.885Z,986.02
2017-10-05T13:09:36.715Z,986.03
2017-10-05T13:10:45.556Z,985.99
2017-10-05T13:11:54.386Z,986.03
2017-10-05T13:13:03.540Z,985.75
2017-10-05T13:14:12.364Z,985.81
2017-10-05T13:15:21.194Z,985.69
2017-10-05T13:16:30.027Z,985.59
2017-10-05T13:17:38.865Z,985.64
2017-10-05T13:18:47.694Z,985.64
2017-10-05T13:19:56.530Z,985.39
2017-10-05T13:21:05.361Z,985.26
2017-10-05T13:22:14.193Z,985.33
2017-10-05T13:23:23.027Z,985.21
2017-10-05T13:24:31.863Z,985.27
2017-10-05T13:25:40.690Z,985.17
2017-10-05T13:26:49.516Z,985.09
2017-10-05T13:27:58.352Z,985.1
2017-10-05T13:29:07.185Z,985.09
2017-10-05T13:30:16.024Z,984.98
2017-10-05T13:31:24.855Z,985.1
2017-10-05T13:32:33.685Z,984.94
2017-10-05T13:33:42.519Z,984.84
2017-10-05T13:34:51.355Z,984.71
2017-10-05T13:36:00.185Z,984.7
2017-10-05T13:37:09.016Z,984.63
2017-10-05T13:38:17.847Z,984.68
2017-10-05T13:39:26.677Z,984.68
2017-10-05T13:40:35.509Z,984.63
2017-10-05T13:41:44.665Z,984.57
2017-10-05T13:42:53.495Z,984.5
2017-10-05T13:44:02.337Z,984.48
2017-10-05T13:45:11.171Z,984.46
2017-10-05T13:46:20.008Z,984.36
2017-10-05T13:47:28.837Z,984.36
2017-10-05T13:48:37.667Z,984.34
2017-10-05T13:49:46.500Z,984.14
2017-10-05T13:50:55.334Z,984.16
2017-10-05T13:52:04.165Z,984.21
2017-10-05T13:53:12.996Z,984.1
2017-10-05T13:54:21.829Z,983.9
2017-10-05T13:55:30.659Z,983.96
2017-10-05T13:56:39.495Z,983.74
2017-10-05T13:57:48.326Z,983.87
2017-10-05T13:58:57.157Z,984.22
2017-10-05T14:00:05.988Z,984.17
2017-10-05T14:01:14.822Z,984.47
2017-10-05T14:02:23.658Z,984.51
2017-10-05T14:03:32.485Z,984.68
2017-10-05T14:04:41.320Z,984.78
2017-10-05T14:05:50.147Z,985.23
2017-10-05T14:06:58.980Z,984.87
2017-10-05T14:08:07.811Z,984.93
2017-10-05T14:09:16.643Z,984.51
2017-10-05T14:10:25.474Z,984.58